Time;durP1;ratioP1;P1;durP2;ratioP2;P2;SDS_P1;SDS_P2;PMS_P1;PMS_P2;Temp;Humidity;BMP_temperature;BMP_pressure;BME280_temperature;BME280_humidity;BME280_pressure;Samples;Min_cycle;Max_cycle;Signal;HPM_P1;HPM_P2
2022/01/04 04:33:15;;;;;;;1.70;1.60;;;;;;;16.16;52.83;97265.34;6948953;23;20257;-80
2022/01/04 04:36:37;;;;;;;1.87;1.77;;;;;;;16.37;52.66;97268.81;6810582;29;20215;-80
2022/01/04 04:39:59;;;;;;;2.70;1.80;;;;;;;16.07;52.67;97239.84;6811821;29;20212;-81
2022/01/04 04:43:21;;;;;;;2.50;2.30;;;;;;;16.01;53.19;97243.69;6813064;29;20226;-81
2022/01/04 04:46:42;;;;;;;2.17;1.80;;;;;;;16.23;53.10;97263.16;6815398;29;20204;-80
2022/01/04 04:50:09;;;;;;;2.40;2.20;;;;;;;16.11;53.95;97259.13;6815250;29;20230;-80
2022/01/04 04:53:30;;;;;;;2.27;1.83;;;;;;;16.11;54.13;97261.84;6816600;29;20669;-81
2022/01/04 04:56:52;;;;;;;2.17;1.90;;;;;;;16.11;54.13;97243.63;6821849;29;20209;-81
2022/01/04 05:00:14;;;;;;;2.33;1.90;;;;;;;16.00;54.53;97236.63;6823649;29;20208;-80
2022/01/04 05:03:36;;;;;;;2.67;2.00;;;;;;;16.13;54.30;97243.34;6810212;29;20300;-80
2022/01/04 05:06:59;;;;;;;1.80;1.70;;;;;;;15.88;55.15;97221.69;6812664;29;20204;-79
2022/01/04 05:10:23;;;;;;;1.93;1.83;;;;;;;16.15;54.69;97222.94;6809316;29;20232;-80
2022/01/04 05:13:45;;;;;;;4.47;2.73;;;;;;;16.06;55.13;97216.47;6815743;29;20248;-81
2022/01/04 05:17:06;;;;;;;1.80;1.70;;;;;;;16.23;54.69;97218.84;6822939;29;20223;-81
2022/01/04 05:20:28;;;;;;;2.67;1.93;;;;;;;16.16;54.90;97205.53;6820339;29;20213;-80
2022/01/04 05:23:52;;;;;;;1.90;1.80;;;;;;;15.99;55.66;97209.69;6813810;29;20224;-81
2022/01/04 05:27:14;;;;;;;2.50;1.70;;;;;;;16.11;55.59;97205.56;6811112;29;20793;-81
2022/01/04 05:30:35;;;;;;;1.80;1.70;;;;;;;15.42;56.91;97196.56;6813504;29;20322;-81
2022/01/04 05:33:57;;;;;;;1.90;1.80;;;;;;;16.06;55.65;97200.16;6816838;29;20647;-80
2022/01/04 05:37:19;;;;;;;2.47;2.20;;;;;;;15.63;57.11;97194.59;6817398;29;20222;-80
2022/01/04 05:40:43;;;;;;;2.53;2.33;;;;;;;16.10;56.15;97197.69;6815679;29;20241;-80
2022/01/04 05:44:05;;;;;;;2.23;2.00;;;;;;;16.32;55.56;97181.78;6816812;29;20214;-82
2022/01/04 05:47:27;;;;;;;2.33;2.10;;;;;;;15.77;57.50;97165.75;6816922;29;20672;-82
2022/01/04 05:50:48;;;;;;;1.90;1.70;;;;;;;15.64;57.79;97150.03;6817414;29;20321;-81
2022/01/04 05:54:12;;;;;;;2.13;2.00;;;;;;;15.33;59.40;97145.81;6816645;29;20220;-80
2022/01/04 05:57:34;;;;;;;1.90;1.80;;;;;;;15.29;59.17;97115.59;6817079;29;20220;-81
2022/01/04 06:00:56;;;;;;;2.50;2.30;;;;;;;14.84;60.69;97123.84;6816860;29;20758;-81
2022/01/04 06:04:18;;;;;;;2.63;2.20;;;;;;;15.17;59.58;97103.44;6816139;29;20208;-79
2022/01/04 06:07:39;;;;;;;2.20;2.00;;;;;;;15.30;59.37;97094.72;6816277;29;20231;-81
2022/01/04 06:11:01;;;;;;;1.73;1.63;;;;;;;15.37;59.64;97116.97;6816497;29;20728;-80
2022/01/04 06:18:04;;;;;;;5.87;3.53;;;;;;;15.38;59.40;97114.00;6816975;29;20212;-80
2022/01/04 06:21:26;;;;;;;3.43;2.30;;;;;;;15.19;60.44;97101.25;6815563;29;20243;-80
2022/01/04 06:24:47;;;;;;;2.13;1.93;;;;;;;15.10;60.35;97071.16;6816806;29;20268;-82
2022/01/04 06:28:09;;;;;;;2.23;1.80;;;;;;;15.22;61.01;97073.56;6816073;29;20253;-79
2022/01/04 06:31:32;;;;;;;2.10;1.90;;;;;;;15.25;61.01;97070.28;6814984;29;20246;-81
2022/01/04 06:34:54;;;;;;;2.27;2.03;;;;;;;14.78;61.57;97008.28;6815182;29;20249;-83
2022/01/04 06:38:15;;;;;;;2.43;2.00;;;;;;;14.96;62.16;97055.72;6816234;29;20691;-83
2022/01/04 06:41:40;;;;;;;1.80;1.70;;;;;;;14.98;62.02;97051.63;6819182;28;20237;-80
2022/01/04 06:45:02;;;;;;;1.90;1.80;;;;;;;15.19;61.70;97055.09;6815196;29;20212;-79
2022/01/04 06:48:25;;;;;;;1.57;1.47;;;;;;;15.25;61.52;97043.13;6814936;29;20229;-80
2022/01/04 06:51:48;;;;;;;1.80;1.70;;;;;;;15.60;60.74;97043.03;6814290;29;20720;-80
2022/01/04 06:55:10;;;;;;;1.97;1.70;;;;;;;15.37;61.10;97036.34;6814717;29;20568;-82
2022/01/04 06:58:31;;;;;;;1.70;1.60;;;;;;;15.45;60.93;97026.81;6815618;29;20221;-80
2022/01/04 07:01:53;;;;;;;2.10;2.00;;;;;;;15.45;60.78;97021.38;6815681;29;20241;-83
2022/01/04 07:05:18;;;;;;;2.10;1.43;;;;;;;15.48;61.00;97031.69;6815085;29;20205;-80
2022/01/04 07:08:40;;;;;;;2.00;1.80;;;;;;;15.50;60.97;97040.34;6815499;29;20217;-81
2022/01/04 07:12:01;;;;;;;1.90;1.70;;;;;;;15.59;60.55;97019.66;6823038;29;20238;-81
2022/01/04 07:15:25;;;;;;;1.83;1.73;;;;;;;15.41;61.35;97023.03;6815990;29;20214;-80
2022/01/04 07:18:48;;;;;;;1.37;1.37;;;;;;;15.73;60.31;97002.47;6815357;29;20672;-82
2022/01/04 07:22:11;;;;;;;1.60;1.40;;;;;;;15.51;60.44;96972.16;6815612;29;20260;-80
2022/01/04 07:25:33;;;;;;;1.90;1.60;;;;;;;15.67;61.07;97006.31;6816093;29;20214;-84
2022/01/04 07:28:55;;;;;;;1.47;1.43;;;;;;;15.80;60.49;97010.31;6816026;29;20215;-84
2022/01/04 07:32:17;;;;;;;1.20;1.20;;;;;;;16.00;60.05;97019.16;6814932;29;20246;-84
2022/01/04 07:35:38;;;;;;;1.40;1.30;;;;;;;16.35;59.06;97007.97;6815911;29;20687;-83
2022/01/04 07:39:01;;;;;;;2.50;1.50;;;;;;;16.11;59.38;96990.78;6817330;29;20199;-82
2022/01/04 07:42:23;;;;;;;1.80;1.70;;;;;;;16.50;58.56;97004.34;6815710;29;20236;-83
2022/01/04 07:45:46;;;;;;;1.90;1.80;;;;;;;16.13;59.42;96995.94;6814925;29;20208;-81
2022/01/04 07:49:07;;;;;;;1.33;1.30;;;;;;;16.25;59.58;96990.94;6817668;29;20204;-82
2022/01/04 07:52:29;;;;;;;1.43;1.30;;;;;;;15.99;59.80;96982.16;6815270;29;20230;-82
2022/01/04 07:55:52;;;;;;;1.93;1.80;;;;;;;16.24;59.81;96973.84;6808432;29;20263;-82
2022/01/04 07:59:14;;;;;;;2.10;2.00;;;;;;;16.58;58.65;96973.81;6804238;28;20230;-81
2022/01/04 08:02:37;;;;;;;1.83;1.57;;;;;;;15.69;60.89;96940.84;6792643;29;20341;-81
2022/01/04 08:05:59;;;;;;;2.27;2.07;;;;;;;16.03;60.60;96953.34;6795382;29;20215;-81
2022/01/04 08:09:22;;;;;;;2.07;1.90;;;;;;;15.92;60.80;96953.72;6809818;29;20214;-82
2022/01/04 08:12:45;;;;;;;2.40;1.77;;;;;;;15.92;60.05;96904.78;6798344;29;20230;-82
2022/01/04 08:16:07;;;;;;;3.07;2.33;;;;;;;16.04;60.42;96938.66;6810435;29;20221;-81
2022/01/04 08:19:28;;;;;;;2.30;1.90;;;;;;;15.95;60.45;96928.66;6811109;29;20686;-81
2022/01/04 08:22:50;;;;;;;1.63;1.53;;;;;;;16.20;60.46;96958.34;6812007;29;20232;-82
2022/01/04 08:26:12;;;;;;;2.07;1.90;;;;;;;15.97;61.00;96946.31;6800465;29;20214;-81
2022/01/04 08:29:35;;;;;;;1.83;1.60;;;;;;;16.36;59.86;96938.09;6801042;29;20215;-80
2022/01/04 08:32:58;;;;;;;1.93;1.77;;;;;;;16.59;59.13;96937.34;6810124;29;20261;-81
2022/01/04 08:36:20;;;;;;;1.77;1.67;;;;;;;16.42;59.87;96945.97;6808145;29;20735;-80
2022/01/04 08:39:41;;;;;;;2.10;1.90;;;;;;;16.86;58.39;96932.16;6785208;29;20592;-81
2022/01/04 08:43:03;;;;;;;1.80;1.70;;;;;;;16.46;59.58;96949.72;6786656;29;20228;-81
2022/01/04 08:46:26;;;;;;;1.57;1.40;;;;;;;16.20;59.08;96915.69;6787200;29;20266;-81
2022/01/04 08:49:48;;;;;;;2.70;1.40;;;;;;;16.89;58.22;96943.28;6792319;29;20217;-82
2022/01/04 08:53:11;;;;;;;2.47;1.60;;;;;;;16.75;58.12;96908.88;6788600;29;20232;-81
2022/01/04 08:56:32;;;;;;;1.77;1.67;;;;;;;16.67;58.68;96918.47;6787193;29;20212;-80
2022/01/04 08:59:55;;;;;;;1.67;1.50;;;;;;;16.58;59.00;96927.56;6787118;29;20657;-81
2022/01/04 09:03:18;;;;;;;2.10;1.80;;;;;;;16.85;58.27;96908.75;6808995;29;20228;-80
2022/01/04 09:06:39;;;;;;;1.73;1.63;;;;;;;17.06;57.10;96923.75;6813808;29;20247;-80
2022/01/04 09:10:01;;;;;;;1.70;1.60;;;;;;;17.31;56.63;96899.72;6816572;29;20248;-80
2022/01/04 09:13:25;;;;;;;1.97;1.87;;;;;;;17.11;56.19;96870.00;6807737;29;20236;-80
2022/01/04 09:20:27;;;;;;;1.57;1.47;;;;;;;17.36;56.08;96907.00;6814944;29;20192;-80
2022/01/04 09:23:50;;;;;;;1.60;1.50;;;;;;;17.70;55.50;96913.84;6815750;29;20216;-79
2022/01/04 09:27:12;;;;;;;1.53;1.43;;;;;;;17.40;55.92;96913.50;6815050;29;20630;-79
2022/01/04 09:30:33;;;;;;;1.80;1.70;;;;;;;17.02;56.47;96888.13;6815885;29;20236;-80
2022/01/04 09:33:57;;;;;;;1.60;1.50;;;;;;;17.33;55.71;96888.53;6817549;29;20196;-81
2022/01/04 09:37:19;;;;;;;1.53;1.43;;;;;;;17.37;55.74;96884.09;6809014;29;20283;-81
2022/01/04 09:40:41;;;;;;;2.00;1.80;;;;;;;16.94;57.61;96894.22;6792920;29;20247;-81
2022/01/04 09:44:06;;;;;;;1.50;1.37;;;;;;;17.50;55.89;96884.19;6806934;29;20213;-80
2022/01/04 09:47:29;;;;;;;2.20;1.60;;;;;;;16.68;57.80;96870.31;6789061;29;20201;-79
2022/01/04 09:50:51;;;;;;;1.77;1.67;;;;;;;16.76;57.96;96870.47;6787162;29;20240;-79
2022/01/04 09:54:17;;;;;;;1.80;1.50;;;;;;;17.31;56.68;96867.03;6788420;29;20788;-81
2022/01/04 09:57:39;;;;;;;2.57;1.87;;;;;;;17.62;56.19;96875.56;6791992;29;20242;-80
2022/01/04 10:01:01;;;;;;;3.13;1.93;;;;;;;17.15;57.56;96870.25;6793189;29;20683;-80
2022/01/04 10:04:24;;;;;;;2.10;1.90;;;;;;;17.04;58.31;96866.84;6803175;29;20208;-79
2022/01/04 10:07:47;;;;;;;2.13;1.93;;;;;;;17.00;58.52;96876.72;6811323;29;20226;-79
2022/01/04 10:11:11;;;;;;;2.03;1.93;;;;;;;16.77;59.46;96855.78;6815448;29;20270;-80
2022/01/04 10:14:35;;;;;;;24.30;16.20;;;;;;;17.06;59.05;96863.84;6809771;29;20229;-80
2022/01/04 10:17:58;;;;;;;4.80;3.70;;;;;;;17.06;58.90;96867.38;6793198;29;20654;-80
2022/01/04 10:21:20;;;;;;;4.43;2.90;;;;;;;16.90;58.51;96868.69;6799597;29;20712;-80
2022/01/04 10:24:43;;;;;;;4.20;3.20;;;;;;;16.69;58.52;96848.25;6790145;29;20247;-78
2022/01/04 10:28:06;;;;;;;5.17;3.13;;;;;;;16.59;59.59;96836.69;6789394;29;20212;-79
2022/01/04 10:31:28;;;;;;;2.43;2.00;;;;;;;16.58;57.46;96772.50;6821047;23;20234;-80
2022/01/04 10:34:50;;;;;;;3.13;1.70;;;;;;;16.84;58.47;96863.56;6791026;29;20660;-84
2022/01/04 10:38:15;;;;;;;2.30;2.10;;;;;;;16.81;56.35;96774.38;6786837;29;20351;-80
2022/01/04 10:41:37;;;;;;;3.67;2.53;;;;;;;17.09;56.70;96834.09;6793949;29;20579;-82
2022/01/04 10:45:00;;;;;;;5.83;3.07;;;;;;;17.06;55.92;96791.16;6788495;29;20226;-81
2022/01/04 10:48:23;;;;;;;1.90;1.80;;;;;;;16.97;55.19;96794.81;6779464;29;20216;-81
2022/01/04 10:51:47;;;;;;;3.73;2.37;;;;;;;16.58;56.21;96781.44;6776798;29;20240;-81
2022/01/04 10:55:12;;;;;;;2.27;2.07;;;;;;;16.87;56.16;96809.38;6792385;29;20210;-81
2022/01/04 10:58:36;;;;;;;1.90;1.80;;;;;;;17.05;54.48;96794.16;6797170;29;20211;-80
2022/01/04 11:02:00;;;;;;;2.47;2.00;;;;;;;17.60;54.45;96835.00;6785411;29;20213;-81
2022/01/04 11:05:49;;;;;;;2.13;1.93;;;;;;;17.30;54.85;96791.03;6789962;29;20214;-91
2022/01/04 11:09:19;;;;;;;3.63;2.20;;;;;;;17.55;53.66;96774.31;6794751;29;20217;-95
2022/01/04 11:12:43;;;;;;;2.97;2.60;;;;;;;17.46;53.68;96767.94;6785030;29;20241;-94
2022/01/04 11:16:08;;;;;;;3.47;3.00;;;;;;;17.33;54.00;96769.47;6758967;29;20243;-92
2022/01/04 11:19:33;;;;;;;2.20;2.00;;;;;;;16.97;54.36;96748.53;6758983;29;20222;-79
2022/01/04 11:22:58;;;;;;;3.60;2.17;;;;;;;17.73;53.77;96801.53;6760456;29;20199;-80
2022/01/04 11:26:20;;;;;;;2.47;2.20;;;;;;;17.41;53.88;96817.06;6764207;29;20599;-83
2022/01/04 11:29:46;;;;;;;4.07;2.43;;;;;;;17.16;54.68;96777.34;6768679;29;20211;-84
2022/01/04 11:33:13;;;;;;;3.50;2.57;;;;;;;17.20;54.56;96762.06;6759364;29;20224;-83
2022/01/04 11:36:38;;;;;;;3.03;2.27;;;;;;;17.04;54.26;96755.22;6760647;29;20210;-83
2022/01/04 11:40:01;;;;;;;3.27;2.67;;;;;;;17.00;56.28;96813.28;6752444;29;20212;-83
2022/01/04 11:43:29;;;;;;;2.30;2.10;;;;;;;16.81;56.14;96760.75;6753860;29;20214;-83
2022/01/04 11:47:02;;;;;;;3.90;2.20;;;;;;;17.44;54.69;96811.81;6749522;29;20241;-83
2022/01/04 11:50:39;;;;;;;4.27;2.87;;;;;;;16.46;56.94;96758.50;6757341;29;20217;-83
2022/01/04 11:54:28;;;;;;;1.90;1.80;;;;;;;16.42;55.69;96711.22;6755761;29;20238;-82
2022/01/04 11:57:54;;;;;;;2.27;2.07;;;;;;;16.66;56.71;96775.38;6692109;29;20213;-83
2022/01/04 12:01:41;;;;;;;3.13;2.40;;;;;;;16.19;57.93;96720.19;6691816;29;20209;-83
2022/01/04 12:05:04;;;;;;;2.57;2.30;;;;;;;16.62;57.66;96787.13;6717076;23;20237;-86
2022/01/04 12:08:28;;;;;;;2.47;2.10;;;;;;;16.81;57.53;96777.88;6793697;29;20214;-85
2022/01/04 12:11:51;;;;;;;2.50;2.27;;;;;;;16.37;58.10;96727.59;6778789;29;20251;-85
2022/01/04 12:15:53;;;;;;;2.43;2.10;;;;;;;16.79;57.03;96776.56;6785869;29;20685;-85
2022/01/04 12:19:16;;;;;;;2.37;2.03;;;;;;;16.90;57.26;96800.63;6765720;29;20597;-85
2022/01/04 12:22:39;;;;;;;3.30;2.40;;;;;;;16.53;58.58;96783.44;6790779;29;20236;-85
2022/01/04 12:26:23;;;;;;;3.57;2.50;;;;;;;16.46;58.84;96791.16;6776032;29;20693;-85
2022/01/04 12:29:46;;;;;;;2.27;2.07;;;;;;;16.78;57.40;96793.97;6778629;29;20553;-86
2022/01/04 12:33:35;;;;;;;10.33;6.83;;;;;;;16.77;57.52;96795.09;6777380;29;20236;-84
2022/01/04 12:36:57;;;;;;;3.83;3.10;;;;;;;16.52;58.09;96773.66;6772770;29;20634;-86
2022/01/04 12:40:19;;;;;;;2.37;2.07;;;;;;;16.82;56.98;96773.25;6771618;29;20599;-86
2022/01/04 12:43:41;;;;;;;2.77;2.10;;;;;;;16.71;57.51;96778.03;6785118;29;20214;-85
2022/01/04 12:47:09;;;;;;;4.20;2.70;;;;;;;16.65;57.19;96776.50;6773817;29;20651;-86
2022/01/04 12:50:31;;;;;;;2.50;2.30;;;;;;;16.67;57.36;96768.84;6781962;29;20240;-86
2022/01/04 12:53:53;;;;;;;3.43;2.80;;;;;;;17.03;56.52;96761.78;6780588;29;20227;-85
2022/01/04 12:57:26;;;;;;;3.50;2.37;;;;;;;17.32;55.62;96759.69;6776110;29;20218;-85
2022/01/04 13:00:51;;;;;;;2.40;2.20;;;;;;;16.84;56.74;96744.66;6776373;29;20229;-84
2022/01/04 13:04:22;;;;;;;2.37;2.00;;;;;;;16.97;57.39;96773.84;6784565;29;20213;-85
2022/01/04 13:07:45;;;;;;;2.30;2.07;;;;;;;17.00;57.35;96781.44;6782702;29;20224;-85
2022/01/04 13:11:07;;;;;;;3.67;2.30;;;;;;;17.07;57.11;96790.03;6781562;29;20322;-85
2022/01/04 13:14:30;;;;;;;4.43;2.50;;;;;;;17.15;57.99;96799.47;6779279;29;20233;-85
2022/01/04 13:17:55;;;;;;;3.23;2.37;;;;;;;16.64;58.79;96782.22;6771826;29;20293;-86
2022/01/04 13:21:18;;;;;;;2.67;2.43;;;;;;;16.39;60.65;96805.09;6771360;29;20239;-84
2022/01/04 13:24:42;;;;;;;3.63;2.50;;;;;;;16.39;60.73;96807.03;6787415;29;20224;-85
2022/01/04 13:28:04;;;;;;;3.63;3.00;;;;;;;16.27;61.07;96790.28;6779187;29;20216;-85
2022/01/04 13:31:27;;;;;;;3.97;2.97;;;;;;;16.52;60.75;96800.88;6776965;29;20232;-84
2022/01/04 13:34:48;;;;;;;3.17;2.20;;;;;;;16.36;61.44;96788.50;6779844;29;20213;-84
2022/01/04 13:38:16;;;;;;;2.97;2.07;;;;;;;16.07;62.40;96782.31;6792780;29;20216;-85
2022/01/04 13:41:39;;;;;;;2.67;2.10;;;;;;;16.29;62.15;96777.97;6774792;29;20236;-84
2022/01/04 13:45:08;;;;;;;3.10;2.30;;;;;;;16.18;62.38;96771.06;6777993;29;20235;-85
2022/01/04 13:48:31;;;;;;;2.43;2.23;;;;;;;16.59;60.53;96769.50;6789844;29;20296;-85
2022/01/04 13:51:53;;;;;;;3.47;2.17;;;;;;;16.39;61.19;96769.72;6786319;29;20258;-84
2022/01/04 13:55:16;;;;;;;5.23;2.50;;;;;;;16.16;62.16;96794.19;6788283;29;20204;-85
2022/01/04 13:58:52;;;;;;;2.10;2.00;;;;;;;16.41;61.44;96783.06;6766622;29;20214;-86
2022/01/04 14:02:27;;;;;;;4.37;2.47;;;;;;;16.43;61.41;96778.94;6775826;29;20225;-84
2022/01/04 14:05:49;;;;;;;2.80;2.13;;;;;;;16.14;62.39;96780.06;6788355;29;20220;-84
2022/01/04 14:09:18;;;;;;;3.40;2.00;;;;;;;16.19;62.77;96775.41;6792003;29;20555;-84
2022/01/04 14:12:44;;;;;;;2.20;2.10;;;;;;;15.96;63.73;96835.16;6787979;29;20237;-84
2022/01/04 14:16:10;;;;;;;2.80;1.70;;;;;;;14.74;63.35;96860.72;6773014;29;20221;-84
2022/01/04 14:19:33;;;;;;;1.53;1.43;;;;;;;14.40;64.05;96878.75;6773851;29;20212;-84
2022/01/04 14:22:55;;;;;;;1.47;1.43;;;;;;;13.26;64.86;96903.97;6783959;29;20230;-84
2022/01/04 14:26:23;;;;;;;1.40;1.30;;;;;;;13.27;64.32;96901.00;6785872;29;20218;-83
2022/01/04 14:29:47;;;;;;;2.10;1.90;;;;;;;13.96;62.82;96937.34;6779455;29;20199;-84
2022/01/04 14:33:09;;;;;;;1.70;1.60;;;;;;;14.11;61.05;96940.03;6785448;29;20242;-86
2022/01/04 14:36:30;;;;;;;1.90;1.80;;;;;;;13.39;62.26;96889.94;6781539;29;20208;-86
2022/01/04 14:39:53;;;;;;;2.23;1.90;;;;;;;13.72;62.36;96938.13;6775883;29;20207;-84
2022/01/04 14:43:14;;;;;;;2.50;2.30;;;;;;;13.42;62.57;96955.16;6785940;29;20234;-84
2022/01/04 14:46:37;;;;;;;2.30;2.10;;;;;;;13.49;62.46;96961.13;6791500;29;20304;-84
2022/01/04 14:49:59;;;;;;;2.03;1.93;;;;;;;13.08;62.51;96972.91;6785420;29;20224;-84
2022/01/04 14:53:22;;;;;;;5.27;4.30;;;;;;;13.02;62.54;96997.50;6784388;29;20605;-83
2022/01/04 14:56:44;;;;;;;3.10;2.60;;;;;;;12.81;63.67;97003.88;6796426;29;20214;-84
2022/01/04 15:00:08;;;;;;;2.67;2.47;;;;;;;13.03;62.51;97005.34;6798199;29;20215;-86
2022/01/04 15:03:31;;;;;;;2.57;2.37;;;;;;;12.84;62.56;97003.31;6782489;29;20672;-86
2022/01/04 15:06:55;;;;;;;2.27;2.07;;;;;;;12.70;62.84;97029.22;6784110;29;20223;-83
2022/01/04 15:10:17;;;;;;;2.80;2.60;;;;;;;12.35;63.61;97034.38;6784510;29;20211;-83
2022/01/04 15:13:40;;;;;;;2.50;2.30;;;;;;;12.20;63.55;97015.34;6783272;29;20231;-84
2022/01/04 15:17:02;;;;;;;2.50;2.30;;;;;;;12.33;63.51;97023.03;6781800;29;20214;-81
2022/01/04 15:20:25;;;;;;;2.27;2.13;;;;;;;12.08;64.35;97026.34;6784739;29;20200;-83
2022/01/04 15:23:47;;;;;;;2.33;2.13;;;;;;;12.67;63.04;97027.03;6780785;29;20203;-84
2022/01/04 15:27:09;;;;;;;2.87;2.57;;;;;;;12.82;62.73;97048.75;6790395;29;20207;-86
2022/01/04 15:30:31;;;;;;;10.63;9.63;;;;;;;13.06;62.51;97055.41;6796533;29;20232;-85
2022/01/04 15:33:52;;;;;;;4.43;2.80;;;;;;;13.20;61.79;97060.09;6772881;29;20231;-84
2022/01/04 15:37:15;;;;;;;2.53;2.33;;;;;;;12.67;61.83;97062.16;6780815;29;20208;-89
2022/01/04 15:40:38;;;;;;;2.10;2.00;;;;;;;12.65;61.64;97075.97;6784604;29;20231;-84
2022/01/04 15:44:00;;;;;;;2.40;2.20;;;;;;;12.09;62.97;97098.19;6781429;29;20626;-84
2022/01/04 15:47:21;;;;;;;2.70;2.50;;;;;;;12.09;63.09;97087.38;6784441;29;20208;-84
2022/01/04 15:50:46;;;;;;;8.30;4.27;;;;;;;12.28;62.57;97082.44;6773570;29;20227;-83
2022/01/04 15:54:10;;;;;;;2.53;2.33;;;;;;;12.14;62.36;97119.03;6787009;29;20224;-84
2022/01/04 15:57:33;;;;;;;2.50;2.30;;;;;;;11.87;62.85;97115.53;6777275;29;20212;-84
2022/01/04 16:00:55;;;;;;;2.57;2.20;;;;;;;11.80;62.70;97120.31;6783979;29;20238;-84
2022/01/04 16:04:16;;;;;;;2.17;1.97;;;;;;;11.53;62.68;97132.91;6780714;29;20572;-84
2022/01/04 16:07:38;;;;;;;2.37;2.20;;;;;;;11.53;63.13;97157.19;6785325;29;20219;-82
2022/01/04 16:11:01;;;;;;;2.60;2.40;;;;;;;11.67;63.24;97163.88;6787986;29;20781;-84
2022/01/04 16:14:23;;;;;;;2.40;2.20;;;;;;;11.64;62.79;97183.28;6780185;29;20223;-83
2022/01/04 16:17:56;;;;;;;2.33;2.23;;;;;;;11.81;62.45;97163.25;6798919;29;20211;-87
2022/01/04 16:21:33;;;;;;;2.67;2.47;;;;;;;11.54;62.50;97169.63;6792477;29;20706;-83
2022/01/04 16:24:57;;;;;;;2.60;2.40;;;;;;;11.69;62.95;97153.66;6763237;29;20211;-83
2022/01/04 16:28:20;;;;;;;3.27;2.97;;;;;;;11.59;62.74;97137.34;6769573;29;20311;-83
2022/01/04 16:31:43;;;;;;;25.47;11.67;;;;;;;11.48;62.82;97101.28;6827681;23;20246;-78
2022/01/04 16:35:06;;;;;;;5.90;4.30;;;;;;;11.54;62.13;97099.44;6782329;29;20227;-79
2022/01/04 16:38:30;;;;;;;3.83;3.43;;;;;;;11.36;62.47;97135.69;6781501;29;20222;-79
2022/01/04 16:41:55;;;;;;;3.90;3.60;;;;;;;11.57;62.33;97142.94;6782991;29;20572;-78
2022/01/04 16:45:19;;;;;;;4.60;4.30;;;;;;;11.58;62.65;97162.66;6774107;29;20612;-79
2022/01/04 16:48:43;;;;;;;3.80;3.50;;;;;;;11.62;62.19;97145.75;6780586;29;20221;-78
2022/01/04 16:52:06;;;;;;;3.67;3.37;;;;;;;11.72;61.51;97193.63;6786760;29;20335;-79
2022/01/04 16:55:28;;;;;;;3.37;3.07;;;;;;;11.45;62.49;97161.16;6791945;29;20321;-78
2022/01/04 16:58:50;;;;;;;4.20;3.80;;;;;;;11.51;62.36;97173.63;6783397;29;20589;-78
2022/01/04 17:02:13;;;;;;;3.53;3.23;;;;;;;11.52;62.15;97212.25;6774212;29;20556;-77
2022/01/04 17:05:39;;;;;;;3.73;3.43;;;;;;;11.67;62.27;97190.88;6773687;29;20204;-78
2022/01/04 17:09:02;;;;;;;3.50;3.20;;;;;;;11.32;62.06;97147.19;6777332;29;20221;-77
2022/01/04 17:16:03;;;;;;;3.37;3.07;;;;;;;11.57;61.73;97190.72;6771263;29;20235;-78
2022/01/04 17:19:26;;;;;;;3.60;2.90;;;;;;;11.34;61.64;97156.69;6755165;29;20215;-78
2022/01/04 17:22:49;;;;;;;4.07;3.67;;;;;;;11.66;60.80;97151.44;6754901;29;20207;-78
2022/01/04 17:26:19;;;;;;;3.80;3.50;;;;;;;10.51;62.11;97077.03;6752748;29;20247;-82
2022/01/04 17:29:43;;;;;;;4.10;3.80;;;;;;;11.29;61.92;97202.50;6752945;29;20208;-80
2022/01/04 17:33:07;;;;;;;4.50;4.10;;;;;;;11.62;60.99;97215.91;6765024;29;20223;-78
2022/01/04 17:36:30;;;;;;;5.20;4.80;;;;;;;11.26;61.32;97151.72;6765479;29;20344;-78
2022/01/04 17:39:54;;;;;;;6.10;5.60;;;;;;;11.47;61.12;97202.22;6766954;29;20781;-78
2022/01/04 17:43:16;;;;;;;3.93;3.53;;;;;;;11.21;62.00;97199.41;6757041;29;20211;-78
2022/01/04 17:46:43;;;;;;;4.00;3.10;;;;;;;10.96;61.33;97156.69;6753916;29;20201;-78
2022/01/04 17:50:36;;;;;;;3.53;2.93;;;;;;;11.48;61.75;97248.88;6766692;29;20318;-78
2022/01/04 17:54:08;;;;;;;3.60;3.30;;;;;;;11.41;61.65;97240.97;6758146;29;20235;-78
2022/01/04 17:57:37;;;;;;;3.70;3.27;;;;;;;10.72;61.11;97104.03;6758472;29;20699;-79
2022/01/04 18:09:13;;;;;;;3.80;3.33;;;;;;;11.01;61.06;97185.59;6693750;29;20205;-78
2022/01/04 18:12:40;;;;;;;3.90;3.20;;;;;;;11.21;60.97;97231.78;6718472;29;20207;-77
2022/01/04 18:16:40;;;;;;;;;;;;;;;;;;;;;
2022/01/04 18:20:46;;;;;;;4.03;3.63;;;;;;;11.19;60.90;97263.56;6748576;29;20247;-80
2022/01/04 18:33:06;;;;;;;6.07;4.67;;;;;;;10.29;61.80;97138.91;6758861;29;20226;-79
2022/01/04 18:41:34;;;;;;;;;;;;;;;;;;;;;
2022/01/04 18:45:24;;;;;;;6.17;3.93;;;;;;;10.66;61.51;97257.81;6784382;29;20222;-79
2022/01/04 18:57:58;;;;;;;2.53;2.33;;;;;;;9.84;60.67;97180.28;6741468;29;20222;-80
2022/01/04 19:01:30;;;;;;;3.10;2.80;;;;;;;10.28;59.89;97204.59;6785375;29;20331;-78
2022/01/04 19:05:17;;;;;;;2.80;2.60;;;;;;;10.56;60.06;97295.38;6781678;29;20211;-79
2022/01/04 19:09:31;;;;;;;3.97;2.47;;;;;;;10.79;59.14;97314.09;6779655;29;20204;-79
2022/01/04 19:13:38;;;;;;;2.63;2.37;;;;;;;10.13;59.12;97303.13;6788009;29;20211;-79
2022/01/04 19:17:36;;;;;;;2.37;2.27;;;;;;;9.90;58.72;97192.78;6781642;29;20231;-78
2022/01/04 19:24:35;;;;;;;2.93;2.50;;;;;;;9.85;62.30;97336.16;6798658;23;20237;-83
2022/01/04 19:27:57;;;;;;;2.60;2.40;;;;;;;9.97;62.00;97333.44;6811811;29;20202;-82
2022/01/04 19:31:24;;;;;;;2.00;1.90;;;;;;;10.09;61.70;97343.19;6798926;29;20237;-82
2022/01/04 19:38:26;;;;;;;1.80;1.70;;;;;;;9.79;59.86;97334.41;6776267;29;20262;-83
2022/01/04 19:41:48;;;;;;;2.00;1.90;;;;;;;9.85;59.97;97324.56;6779118;29;20251;-83
2022/01/04 19:45:09;;;;;;;2.27;2.07;;;;;;;10.14;60.30;97335.22;6767197;29;20213;-83
2022/01/04 19:48:31;;;;;;;2.50;2.30;;;;;;;9.97;60.04;97288.50;6784754;29;20211;-83
2022/01/04 19:51:54;;;;;;;2.13;1.93;;;;;;;10.45;59.94;97331.25;6775335;29;20242;-81
2022/01/04 19:55:16;;;;;;;10.20;7.47;;;;;;;9.74;60.36;97320.84;6771210;29;20234;-82
2022/01/04 19:58:38;;;;;;;3.30;3.00;;;;;;;10.02;60.12;97357.78;6777219;29;20207;-81
2022/01/04 20:01:59;;;;;;;22.60;16.10;;;;;;;9.75;61.49;97330.53;6775748;29;20233;-81
2022/01/04 20:05:21;;;;;;;6.43;5.40;;;;;;;10.13;60.63;97360.50;6779732;29;20236;-81
2022/01/04 20:08:44;;;;;;;11.57;8.40;;;;;;;10.18;60.96;97374.09;6765715;29;20218;-81
2022/01/04 20:12:07;;;;;;;5.40;4.77;;;;;;;10.19;60.14;97364.09;6782303;29;20242;-82
2022/01/04 20:15:28;;;;;;;20.30;15.37;;;;;;;9.98;61.35;97345.88;6769327;29;20608;-82
2022/01/04 20:18:50;;;;;;;3.93;2.93;;;;;;;9.99;61.72;97372.53;6773661;29;20207;-82
2022/01/04 20:22:13;;;;;;;3.13;2.83;;;;;;;10.37;60.50;97366.63;6782686;29;20246;-81
2022/01/04 20:25:36;;;;;;;3.93;3.23;;;;;;;10.91;58.33;97358.00;6774522;29;20255;-82
2022/01/04 20:28:58;;;;;;;5.90;5.30;;;;;;;10.70;58.61;97362.19;6779845;29;20224;-82
2022/01/04 20:32:20;;;;;;;5.17;4.67;;;;;;;10.79;58.16;97363.44;6766574;29;20236;-82
2022/01/04 20:35:42;;;;;;;2.37;2.20;;;;;;;10.86;57.44;97361.41;6774267;29;20251;-82
2022/01/04 20:39:04;;;;;;;2.20;2.10;;;;;;;10.88;57.17;97340.44;6782664;29;20242;-82
2022/01/04 20:42:27;;;;;;;2.20;2.10;;;;;;;10.66;58.16;97338.66;6771126;29;20227;-81
2022/01/04 20:45:48;;;;;;;2.40;2.20;;;;;;;10.82;57.72;97332.50;6772128;29;20212;-81
2022/01/04 20:49:10;;;;;;;2.30;2.20;;;;;;;10.90;57.44;97348.28;6769008;29;20214;-82
2022/01/04 20:52:32;;;;;;;2.10;2.00;;;;;;;10.94;57.32;97361.06;6780036;29;20239;-82
2022/01/04 20:55:54;;;;;;;2.30;2.10;;;;;;;10.74;56.63;97333.69;6774916;29;20243;-81
2022/01/04 20:59:17;;;;;;;3.50;3.20;;;;;;;10.67;57.66;97367.25;6767416;29;20219;-81
2022/01/04 21:02:38;;;;;;;3.47;3.17;;;;;;;10.52;58.89;97358.88;6774792;29;20236;-82
2022/01/04 21:06:00;;;;;;;3.40;3.10;;;;;;;10.53;57.86;97355.94;6768622;29;20707;-82
2022/01/04 21:09:23;;;;;;;3.03;2.83;;;;;;;10.33;58.01;97346.66;6771744;29;20204;-81
2022/01/04 21:12:45;;;;;;;2.63;2.50;;;;;;;10.46;58.23;97343.66;6774718;29;20246;-82
2022/01/04 21:16:09;;;;;;;2.80;2.60;;;;;;;10.78;58.16;97342.94;6774283;29;20231;-82
2022/01/04 21:19:31;;;;;;;4.37;3.97;;;;;;;10.84;57.36;97351.94;6778668;29;20199;-82
2022/01/04 21:22:53;;;;;;;2.73;2.53;;;;;;;11.09;56.22;97341.63;6768132;29;20238;-81
2022/01/04 21:26:15;;;;;;;2.10;2.00;;;;;;;10.88;56.77;97329.66;6781424;29;20313;-82
2022/01/04 21:29:37;;;;;;;2.17;2.07;;;;;;;11.02;55.94;97339.06;6774183;29;20661;-81